createdAt,value
2022-11-05T00:03:01.005Z,1.35
2022-11-05T00:12:58.872Z,1.34
2022-11-05T00:23:06.816Z,1.07
2022-11-05T00:33:16.571Z,1.25
2022-11-05T00:43:25.658Z,1.3
2022-11-05T00:53:35.104Z,1.25
2022-11-05T01:03:50.496Z,0.73
2022-11-05T01:13:45.978Z,1.07
2022-11-05T01:23:45.402Z,1.01
2022-11-05T01:33:54.241Z,1.06
2022-11-05T01:44:02.218Z,1.34
2022-11-05T01:54:10.201Z,1.35
2022-11-05T02:04:19.253Z,1.25
2022-11-05T02:14:27.183Z,1.46
2022-11-05T02:24:35.040Z,1
2022-11-05T02:34:45.366Z,1.1
2022-11-05T02:54:49.456Z,1.37
2022-11-05T03:14:50.702Z,0.89
2022-11-05T03:24:58.908Z,1.29
2022-11-05T03:35:07.892Z,0.93
2022-11-05T03:45:17.378Z,0.94
2022-11-05T03:55:25.671Z,0.94
2022-11-05T04:05:36.993Z,0.95
2022-11-05T04:25:38.155Z,1.04
2022-11-05T04:35:46.406Z,1.08
2022-11-05T04:45:55.411Z,1.02
2022-11-05T04:56:04.538Z,1.15
2022-11-05T05:06:11.839Z,1.28
2022-11-05T05:16:19.742Z,1.28
2022-11-05T05:26:27.668Z,1.05
2022-11-05T05:36:36.400Z,1.15
2022-11-05T05:46:44.287Z,1.08
2022-11-05T05:56:52.127Z,1.03
2022-11-05T06:06:59.949Z,1.33
2022-11-05T06:17:08.396Z,1.22
2022-11-05T06:27:16.175Z,1.52
2022-11-05T06:37:24.181Z,1.67
2022-11-05T06:47:31.943Z,1.58
2022-11-05T06:57:39.859Z,1.6
2022-11-05T07:07:47.712Z,1.85
2022-11-05T07:17:55.714Z,1.96
2022-11-05T07:28:03.614Z,2.48
2022-11-05T07:38:11.456Z,1.91
2022-11-05T07:48:20.648Z,1.87
2022-11-05T07:58:28.755Z,1.42
2022-11-05T08:08:36.693Z,2.1
2022-11-05T08:18:46.071Z,1.64
2022-11-05T08:28:55.470Z,1.59
2022-11-05T08:39:05.538Z,1.48
2022-11-05T08:49:17.008Z,1.51
2022-11-05T08:59:14.866Z,1.74
2022-11-05T09:09:24.287Z,1.29
2022-11-05T09:19:33.127Z,1.32
2022-11-05T09:29:39.561Z,1.22
2022-11-05T09:39:47.226Z,1.26
2022-11-05T09:49:55.007Z,1.63
2022-11-05T10:00:02.851Z,1.83
2022-11-05T10:10:10.683Z,1.47
2022-11-05T10:20:21.594Z,1.18
2022-11-05T10:30:19.433Z,1.48
2022-11-05T10:40:27.056Z,1.38
2022-11-05T10:50:34.869Z,1.27
2022-11-05T11:00:42.806Z,1.88
2022-11-05T11:10:50.707Z,1.26
2022-11-05T11:20:59.969Z,1.44
2022-11-05T11:31:07.715Z,1.11
2022-11-05T11:41:15.503Z,1.38
2022-11-05T11:51:23.787Z,0.87
2022-11-05T12:01:31.664Z,0.94
2022-11-05T12:11:40.581Z,0.93
2022-11-05T12:21:52.844Z,1.6
2022-11-05T12:31:54.923Z,1.88
2022-11-05T12:42:03.074Z,1.36
2022-11-05T12:52:13.584Z,1.03
2022-11-05T13:02:11.930Z,2.09
2022-11-05T13:12:20.001Z,2.99
2022-11-05T13:22:28.104Z,1.65
2022-11-05T13:32:36.105Z,1.9
2022-11-05T13:42:49.617Z,1.63
2022-11-05T13:52:49.144Z,1.64
2022-11-05T14:03:09.151Z,1.56
2022-11-05T14:13:12.043Z,1.46
2022-11-05T14:23:24.204Z,1.32
2022-11-05T14:33:19.852Z,1.18
2022-11-05T14:43:41.902Z,1.16
2022-11-05T14:53:26.491Z,1.33
2022-11-05T15:03:27.224Z,1.39
2022-11-05T15:13:25.925Z,1.08
2022-11-05T15:23:35.257Z,1.01
2022-11-05T15:33:57.141Z,1.35
2022-11-05T15:43:48.003Z,1.19
2022-11-05T15:54:15.995Z,1.1
2022-11-05T16:04:05.738Z,1.43
2022-11-05T16:14:10.153Z,1.27
2022-11-05T16:24:19.271Z,1.4
2022-11-05T16:34:27.630Z,1.67
2022-11-05T16:44:35.413Z,1.55
2022-11-05T16:54:44.574Z,4.4
2022-11-05T17:04:54.116Z,2.01
2022-11-05T17:15:03.301Z,2.44
2022-11-05T17:25:12.356Z,2.63
2022-11-05T17:35:20.990Z,3.06
2022-11-05T17:45:30.421Z,3.04
2022-11-05T17:55:41.596Z,2.01
2022-11-05T18:05:39.544Z,5.63
2022-11-05T18:15:48.018Z,9.65
2022-11-05T18:25:56.699Z,3.32
2022-11-05T18:36:05.243Z,4.28
2022-11-05T18:46:36.313Z,2.42
2022-11-05T18:56:18.446Z,3.85
2022-11-05T19:06:17.256Z,6.06
2022-11-05T19:16:26.582Z,4.5
2022-11-05T19:26:38.500Z,3.92
2022-11-05T19:36:36.801Z,3.34
2022-11-05T19:46:45.739Z,4.89
2022-11-05T19:56:53.630Z,3.56
2022-11-05T20:07:01.480Z,4.06
2022-11-05T20:17:09.746Z,5.12
2022-11-05T20:27:17.871Z,5.91
2022-11-05T20:37:25.847Z,5.55
2022-11-05T20:47:33.749Z,9.28
2022-11-05T20:57:41.612Z,5.41
2022-11-05T21:07:49.376Z,5.44
2022-11-05T21:17:57.214Z,5.41
2022-11-05T21:28:05.119Z,6.16
2022-11-05T21:38:13.190Z,5.79
2022-11-05T21:48:23.091Z,6.51
2022-11-05T22:08:23.219Z,6.53
2022-11-05T22:18:31.044Z,5.52
2022-11-05T22:28:38.821Z,5.43
2022-11-05T22:38:46.724Z,4.32
2022-11-05T22:48:54.687Z,3.99
2022-11-05T22:59:02.460Z,3.5
2022-11-05T23:09:11.376Z,3.27
2022-11-05T23:19:19.216Z,4.59
2022-11-05T23:29:26.964Z,4.01
2022-11-05T23:39:38.314Z,4.52
2022-11-05T23:49:42.098Z,3.86
2022-11-05T23:59:49.973Z,3.65
